Time;durP1;ratioP1;P1;durP2;ratioP2;P2;SDS_P1;SDS_P2;PMS_P1;PMS_P2;Temp;Humidity;BMP_temperature;BMP_pressure;BME280_temperature;BME280_humidity;BME280_pressure;Samples;Min_cycle;Max_cycle;Signal;HPM_P1;HPM_P2
2024/01/26 00:01:53;;;;;;;2.40;2.00;;;10.80;99.90;;;;;;5026301;28;20214;-86
2024/01/26 00:04:19;;;;;;;2.47;2.27;;;10.80;99.90;;;;;;5032100;28;20188;-86
2024/01/26 00:06:44;;;;;;;2.50;2.30;;;10.90;99.90;;;;;;5034725;28;20214;-86
2024/01/26 00:09:11;;;;;;;2.27;2.07;;;10.70;99.90;;;;;;5035287;28;20255;-86
2024/01/26 00:11:37;;;;;;;2.40;2.20;;;11.20;99.90;;;;;;5050540;28;20193;-86
2024/01/26 00:14:04;;;;;;;2.00;1.83;;;11.10;99.90;;;;;;5031625;28;20204;-86
2024/01/26 00:16:30;;;;;;;2.20;2.00;;;11.00;99.90;;;;;;5032987;28;20283;-87
2024/01/26 00:18:55;;;;;;;2.30;2.10;;;11.40;99.90;;;;;;5036486;28;20256;-85
2024/01/26 00:21:21;;;;;;;2.33;2.10;;;11.00;99.90;;;;;;5037018;28;20196;-86
2024/01/26 00:23:46;;;;;;;2.30;2.10;;;11.20;99.90;;;;;;5038223;28;20665;-85
2024/01/26 00:26:13;;;;;;;2.37;1.90;;;11.30;99.90;;;;;;5037067;28;20283;-86
2024/01/26 00:28:39;;;;;;;1.85;1.75;;;11.20;99.90;;;;;;5054010;28;20182;-86
2024/01/26 00:31:04;;;;;;;3.20;1.77;;;11.10;99.90;;;;;;5040067;28;20201;-86
2024/01/26 00:33:30;;;;;;;2.00;1.80;;;10.90;99.90;;;;;;5040252;28;20445;-86
2024/01/26 00:35:55;;;;;;;1.90;1.70;;;11.60;99.90;;;;;;5041631;28;20233;-86
2024/01/26 00:38:21;;;;;;;1.40;1.30;;;11.00;99.90;;;;;;5040456;28;20216;-86
2024/01/26 00:40:47;;;;;;;1.50;1.40;;;11.00;99.90;;;;;;5038024;28;20275;-86
2024/01/26 00:43:12;;;;;;;1.30;1.20;;;11.30;99.90;;;;;;5054395;28;20196;-86
2024/01/26 00:45:39;;;;;;;1.50;1.40;;;11.60;99.90;;;;;;5053050;28;20185;-86
2024/01/26 00:48:05;;;;;;;1.50;1.40;;;11.20;99.90;;;;;;5057256;28;20269;-86
2024/01/26 00:50:30;;;;;;;1.45;1.35;;;11.00;99.90;;;;;;5043906;28;20201;-86
2024/01/26 00:52:56;;;;;;;1.33;1.23;;;11.30;99.90;;;;;;5037246;28;20197;-86
2024/01/26 00:55:22;;;;;;;1.47;1.20;;;10.60;99.90;;;;;;5055273;28;20193;-86
2024/01/26 00:57:48;;;;;;;1.35;1.25;;;11.40;99.90;;;;;;5034478;28;20238;-86
2024/01/26 01:00:14;;;;;;;1.30;1.20;;;11.20;99.90;;;;;;5030990;28;20183;-86
2024/01/26 01:02:40;;;;;;;1.35;1.13;;;11.20;99.90;;;;;;5030608;28;20193;-86
2024/01/26 01:05:06;;;;;;;1.60;1.50;;;11.10;99.90;;;;;;5031679;28;20327;-86
2024/01/26 01:07:32;;;;;;;1.10;1.00;;;11.00;99.90;;;;;;5034070;28;20273;-86
2024/01/26 01:09:57;;;;;;;1.17;1.07;;;11.10;99.90;;;;;;5032069;28;20716;-86
2024/01/26 01:12:23;;;;;;;0.90;0.90;;;11.60;99.90;;;;;;5032223;28;20185;-86
2024/01/26 01:14:49;;;;;;;1.37;1.20;;;11.60;99.90;;;;;;5031836;28;20698;-86
2024/01/26 01:17:14;;;;;;;1.67;1.10;;;11.30;99.90;;;;;;5033001;28;20310;-86
2024/01/26 01:19:40;;;;;;;1.70;1.10;;;11.10;99.90;;;;;;5030217;28;20177;-86
2024/01/26 01:22:05;;;;;;;1.53;1.20;;;10.90;99.90;;;;;;5032788;28;20219;-86
2024/01/26 01:24:31;;;;;;;1.20;1.10;;;11.10;99.90;;;;;;5031193;28;20216;-86
2024/01/26 01:26:57;;;;;;;1.20;1.10;;;11.20;99.90;;;;;;5032294;28;20679;-86
2024/01/26 01:29:22;;;;;;;1.20;1.00;;;11.00;99.90;;;;;;5029487;28;20847;-86
2024/01/26 01:31:48;;;;;;;1.30;1.20;;;11.10;99.90;;;;;;5030415;28;20701;-86
2024/01/26 01:34:13;;;;;;;0.90;0.80;;;11.20;99.90;;;;;;5029627;28;20219;-86
2024/01/26 01:36:39;;;;;;;1.20;1.10;;;11.40;99.90;;;;;;5046289;28;20235;-85
2024/01/26 01:39:07;;;;;;;0.80;0.80;;;11.10;99.90;;;;;;5031123;28;20599;-86
2024/01/26 01:41:33;;;;;;;1.13;1.02;;;11.30;99.90;;;;;;5032615;28;20192;-86
2024/01/26 01:43:58;;;;;;;0.87;0.87;;;11.60;99.90;;;;;;5025369;28;20557;-86
2024/01/26 01:46:24;;;;;;;1.00;0.80;;;11.00;99.90;;;;;;5031065;28;20231;-86
2024/01/26 01:48:50;;;;;;;0.80;0.80;;;11.30;99.90;;;;;;5032714;28;20190;-86
2024/01/26 01:51:16;;;;;;;1.08;0.90;;;11.30;99.90;;;;;;5036013;28;20186;-86
2024/01/26 01:53:42;;;;;;;1.20;1.02;;;11.00;99.90;;;;;;5041858;28;20288;-86
2024/01/26 01:56:11;;;;;;;1.30;1.20;;;11.20;99.90;;;;;;5038804;28;20720;-86
2024/01/26 01:58:41;;;;;;;1.10;1.00;;;11.70;99.90;;;;;;5055660;28;20298;-86
2024/01/26 02:01:07;;;;;;;1.23;1.13;;;11.00;99.90;;;;;;5049689;28;20196;-86
2024/01/26 02:03:33;;;;;;;1.00;0.90;;;11.40;99.90;;;;;;5039712;28;20192;-86
2024/01/26 02:05:58;;;;;;;1.30;1.20;;;10.80;99.90;;;;;;5032385;28;20208;-86
2024/01/26 02:08:24;;;;;;;0.93;0.87;;;10.80;99.90;;;;;;5030599;28;20246;-86
2024/01/26 02:10:49;;;;;;;1.60;1.00;;;11.40;99.90;;;;;;5044601;28;20247;-85
2024/01/26 02:13:15;;;;;;;0.90;0.80;;;10.70;99.90;;;;;;5044957;28;20293;-86
2024/01/26 02:15:41;;;;;;;1.03;0.90;;;11.20;99.90;;;;;;5028417;28;20199;-86
2024/01/26 02:18:07;;;;;;;2.07;0.90;;;11.00;99.90;;;;;;5035637;28;20208;-86
2024/01/26 02:20:32;;;;;;;1.27;0.80;;;11.00;99.90;;;;;;5037253;28;20447;-85
2024/01/26 02:22:58;;;;;;;1.10;0.87;;;10.80;99.90;;;;;;5034092;28;20280;-86
2024/01/26 02:25:23;;;;;;;2.80;1.10;;;10.80;99.90;;;;;;5033738;28;20207;-86
2024/01/26 02:27:52;;;;;;;1.20;1.10;;;10.60;99.90;;;;;;5034645;28;20231;-86
2024/01/26 02:30:17;;;;;;;0.90;0.70;;;10.60;99.90;;;;;;5036381;28;20260;-86
2024/01/26 02:32:43;;;;;;;1.03;0.93;;;10.70;99.90;;;;;;5036384;28;20190;-86
2024/01/26 02:35:09;;;;;;;1.17;0.60;;;11.10;99.90;;;;;;5035915;28;20202;-86
2024/01/26 02:37:35;;;;;;;0.88;0.70;;;11.30;99.90;;;;;;5036106;28;20250;-86
2024/01/26 02:40:00;;;;;;;1.60;0.60;;;11.20;99.90;;;;;;5034961;28;20526;-86
2024/01/26 02:42:26;;;;;;;1.40;0.70;;;10.90;99.90;;;;;;5034964;28;20217;-85
2024/01/26 02:44:51;;;;;;;0.80;0.80;;;10.80;99.90;;;;;;5036050;28;20213;-86
2024/01/26 02:47:17;;;;;;;1.20;0.80;;;11.10;99.90;;;;;;5034289;28;20211;-86
2024/01/26 02:49:43;;;;;;;1.13;0.70;;;11.20;99.90;;;;;;5032462;28;20649;-86
2024/01/26 02:52:09;;;;;;;1.13;1.00;;;11.30;99.90;;;;;;5029523;28;20640;-87
2024/01/26 02:54:34;;;;;;;1.20;1.10;;;10.90;99.90;;;;;;5031857;28;20223;-86
2024/01/26 02:57:00;;;;;;;1.00;0.77;;;11.10;99.90;;;;;;5048380;28;20266;-86
2024/01/26 02:59:25;;;;;;;1.27;1.17;;;10.70;99.90;;;;;;5027852;28;20192;-86
2024/01/26 03:01:51;;;;;;;1.20;1.10;;;10.60;99.90;;;;;;5040288;28;20177;-86
2024/01/26 03:04:18;;;;;;;1.00;1.00;;;10.70;99.90;;;;;;5053020;28;20183;-86
2024/01/26 03:06:45;;;;;;;0.80;0.70;;;10.50;99.90;;;;;;5054438;28;20193;-86
2024/01/26 03:09:10;;;;;;;1.13;1.00;;;11.00;99.90;;;;;;5053713;28;20196;-87
2024/01/26 03:11:41;;;;;;;1.00;0.73;;;10.70;99.90;;;;;;5029612;28;20227;-85
2024/01/26 03:14:07;;;;;;;1.10;1.00;;;10.70;99.90;;;;;;5031074;28;20551;-86
2024/01/26 03:16:34;;;;;;;0.90;0.90;;;10.60;99.90;;;;;;5025226;28;20219;-85
2024/01/26 03:19:00;;;;;;;1.00;0.80;;;10.70;99.90;;;;;;5030077;28;20223;-85
2024/01/26 03:21:26;;;;;;;1.27;0.90;;;10.80;99.90;;;;;;5030290;28;20616;-85
2024/01/26 03:23:51;;;;;;;2.08;1.27;;;11.10;99.90;;;;;;5029766;28;20504;-86
2024/01/26 03:26:18;;;;;;;1.10;1.00;;;10.80;99.90;;;;;;5029945;28;20490;-85
2024/01/26 03:28:43;;;;;;;1.08;0.95;;;10.70;99.90;;;;;;5026374;28;20207;-85
2024/01/26 03:31:09;;;;;;;1.20;0.80;;;10.70;99.90;;;;;;5030568;28;20628;-85
2024/01/26 03:33:34;;;;;;;1.20;1.03;;;10.70;99.90;;;;;;5029395;28;20990;-86
2024/01/26 03:36:00;;;;;;;1.03;0.90;;;10.60;99.90;;;;;;5030634;28;20207;-85
2024/01/26 03:38:25;;;;;;;2.03;1.13;;;10.50;99.90;;;;;;5028226;28;20689;-86
2024/01/26 03:40:51;;;;;;;2.30;1.00;;;10.60;99.90;;;;;;5031550;28;20211;-85
2024/01/26 03:43:16;;;;;;;1.10;1.00;;;10.10;99.90;;;;;;5028110;28;20185;-85
2024/01/26 03:45:43;;;;;;;0.93;0.90;;;10.80;99.90;;;;;;5029959;28;20202;-85
2024/01/26 03:48:08;;;;;;;1.17;1.08;;;10.30;99.90;;;;;;5027188;28;20200;-86
2024/01/26 03:50:34;;;;;;;3.03;1.40;;;10.90;99.90;;;;;;5026399;28;20234;-85
2024/01/26 03:52:59;;;;;;;1.50;1.20;;;10.60;99.90;;;;;;5030714;28;20214;-85
2024/01/26 03:55:25;;;;;;;1.60;1.50;;;10.40;99.90;;;;;;5030068;28;20211;-85
2024/01/26 03:57:50;;;;;;;1.53;1.20;;;10.90;99.90;;;;;;5041206;28;20232;-84
2024/01/26 04:00:16;;;;;;;1.60;1.40;;;10.60;99.90;;;;;;5060106;28;20184;-84
2024/01/26 04:02:42;;;;;;;1.50;1.25;;;10.50;99.90;;;;;;5030687;28;20785;-84
2024/01/26 04:05:08;;;;;;;1.47;1.10;;;10.70;99.90;;;;;;5032723;28;20195;-85
2024/01/26 04:07:35;;;;;;;1.60;1.50;;;11.20;99.90;;;;;;5053978;28;20184;-84
2024/01/26 04:10:00;;;;;;;2.40;1.67;;;10.80;99.90;;;;;;5074636;28;20166;-85
2024/01/26 04:12:26;;;;;;;1.73;1.47;;;10.90;99.90;;;;;;5049036;28;20684;-85
2024/01/26 04:14:51;;;;;;;1.10;0.93;;;10.70;99.90;;;;;;5035672;28;20210;-85
2024/01/26 04:17:17;;;;;;;1.40;1.10;;;10.70;99.90;;;;;;5035579;28;20195;-85
2024/01/26 04:19:42;;;;;;;1.50;1.40;;;10.70;99.90;;;;;;5037323;28;20181;-85
2024/01/26 04:22:08;;;;;;;1.23;1.13;;;10.80;99.90;;;;;;5049119;28;20539;-85
2024/01/26 04:24:36;;;;;;;2.60;1.27;;;10.80;99.90;;;;;;5034900;28;20783;-85
2024/01/26 04:27:02;;;;;;;1.42;1.20;;;11.10;99.90;;;;;;5033088;28;20183;-85
2024/01/26 04:29:28;;;;;;;1.40;1.30;;;11.10;99.90;;;;;;5033046;28;20184;-85
2024/01/26 04:31:53;;;;;;;1.40;1.30;;;11.40;99.90;;;;;;5036025;28;20235;-85
2024/01/26 04:34:19;;;;;;;1.70;1.57;;;10.80;99.90;;;;;;5030471;28;20228;-86
2024/01/26 04:36:48;;;;;;;2.20;1.40;;;10.70;99.90;;;;;;5035562;28;20176;-86
2024/01/26 04:39:15;;;;;;;1.27;1.17;;;10.50;99.90;;;;;;5030773;28;20462;-86
2024/01/26 04:41:40;;;;;;;3.05;1.33;;;10.90;99.90;;;;;;5051144;28;20187;-86
2024/01/26 04:44:06;;;;;;;1.10;1.00;;;10.70;99.90;;;;;;5035150;28;20193;-87
2024/01/26 04:46:32;;;;;;;1.50;1.40;;;10.50;99.90;;;;;;5037361;28;20791;-86
2024/01/26 04:48:57;;;;;;;1.00;0.90;;;10.40;99.90;;;;;;5036208;28;20673;-86
2024/01/26 04:51:23;;;;;;;1.60;1.30;;;10.60;99.90;;;;;;5036333;28;20176;-86
2024/01/26 04:53:48;;;;;;;0.83;0.83;;;10.50;99.90;;;;;;5030638;28;20197;-86
2024/01/26 04:56:14;;;;;;;1.10;1.00;;;10.30;99.90;;;;;;5033552;28;20211;-86
2024/01/26 04:58:40;;;;;;;1.57;1.37;;;10.50;99.90;;;;;;5045762;28;20587;-86
2024/01/26 05:01:06;;;;;;;1.67;1.10;;;10.50;99.90;;;;;;5035454;28;20337;-86
2024/01/26 05:03:32;;;;;;;1.60;1.50;;;10.40;99.90;;;;;;5031990;28;20226;-85
2024/01/26 05:05:57;;;;;;;2.93;1.40;;;10.40;99.90;;;;;;5040418;28;20576;-86
2024/01/26 05:08:23;;;;;;;1.83;1.50;;;10.70;99.90;;;;;;5038370;28;20189;-85
2024/01/26 05:10:48;;;;;;;1.23;1.13;;;10.90;99.90;;;;;;5056522;28;20182;-85
2024/01/26 05:13:14;;;;;;;1.20;1.10;;;11.10;99.90;;;;;;5036274;28;20197;-86
2024/01/26 05:15:40;;;;;;;0.93;0.83;;;10.50;99.90;;;;;;5032674;28;20211;-86
2024/01/26 05:18:05;;;;;;;1.30;1.20;;;10.80;99.90;;;;;;5039635;28;20205;-86
2024/01/26 05:20:31;;;;;;;1.37;1.27;;;10.60;99.90;;;;;;5036141;28;20654;-85
2024/01/26 05:22:56;;;;;;;1.63;1.40;;;11.00;99.90;;;;;;5049189;28;20284;-86
2024/01/26 05:25:22;;;;;;;0.97;0.90;;;10.40;99.90;;;;;;5033133;28;20685;-86
2024/01/26 05:27:47;;;;;;;1.50;1.20;;;10.70;99.90;;;;;;5047288;28;20210;-86
2024/01/26 05:30:13;;;;;;;1.30;1.00;;;10.70;99.90;;;;;;5036578;28;20195;-85
2024/01/26 05:32:38;;;;;;;1.20;1.10;;;10.50;99.90;;;;;;5045321;28;20210;-86
2024/01/26 05:35:04;;;;;;;1.10;1.00;;;10.60;99.90;;;;;;5031958;28;20268;-86
2024/01/26 05:37:30;;;;;;;1.65;1.15;;;10.40;99.90;;;;;;5032710;28;20314;-86
2024/01/26 05:39:56;;;;;;;1.47;1.10;;;10.50;99.90;;;;;;5035592;28;20271;-85
2024/01/26 05:42:21;;;;;;;1.57;1.30;;;10.70;99.90;;;;;;5032459;28;20816;-86
2024/01/26 05:44:46;;;;;;;1.63;1.10;;;10.20;99.90;;;;;;5033433;28;20203;-86
2024/01/26 05:47:12;;;;;;;2.03;1.20;;;10.50;99.90;;;;;;5034755;28;20217;-85
2024/01/26 05:49:37;;;;;;;1.73;1.20;;;10.30;99.90;;;;;;5034763;28;20237;-85
2024/01/26 05:52:03;;;;;;;1.30;1.20;;;10.60;99.90;;;;;;5030045;28;20184;-86
2024/01/26 05:54:29;;;;;;;1.23;1.13;;;10.50;99.90;;;;;;5031950;28;20208;-86
2024/01/26 05:56:54;;;;;;;1.47;1.37;;;10.40;99.90;;;;;;5029379;28;20447;-86
2024/01/26 05:59:20;;;;;;;2.50;1.50;;;10.50;99.90;;;;;;5031379;28;20204;-86
2024/01/26 06:01:45;;;;;;;1.50;1.33;;;10.20;99.90;;;;;;5032267;28;20211;-86
2024/01/26 06:04:11;;;;;;;1.60;1.50;;;10.40;99.90;;;;;;5035702;28;20185;-86
2024/01/26 06:06:36;;;;;;;1.17;1.07;;;10.50;99.90;;;;;;5051594;28;20561;-86
2024/01/26 06:09:02;;;;;;;1.27;1.10;;;10.30;99.90;;;;;;5055538;28;20214;-86
2024/01/26 06:11:28;;;;;;;1.43;1.30;;;10.90;99.90;;;;;;5037509;28;20270;-86
2024/01/26 06:13:54;;;;;;;1.42;1.20;;;10.40;99.90;;;;;;5042560;28;20184;-86
2024/01/26 06:16:19;;;;;;;2.63;2.10;;;10.80;99.90;;;;;;5047607;28;20223;-86
2024/01/26 06:18:45;;;;;;;1.70;1.40;;;10.30;99.90;;;;;;5054946;28;20271;-86
2024/01/26 06:21:11;;;;;;;1.53;1.00;;;10.30;99.90;;;;;;5017357;28;20210;-87
2024/01/26 06:23:38;;;;;;;1.98;1.17;;;10.60;99.90;;;;;;5037073;28;20195;-86
2024/01/26 06:26:03;;;;;;;1.88;1.20;;;10.30;99.90;;;;;;5050719;28;20196;-86
2024/01/26 06:28:29;;;;;;;1.90;1.27;;;10.60;99.90;;;;;;5038302;28;20253;-86
2024/01/26 06:30:54;;;;;;;1.30;1.20;;;10.30;99.90;;;;;;5041068;28;20193;-86
2024/01/26 06:33:20;;;;;;;2.90;1.70;;;10.00;99.90;;;;;;5037441;28;20285;-86
2024/01/26 06:35:46;;;;;;;1.37;1.10;;;10.40;99.90;;;;;;5039713;28;20234;-86
2024/01/26 06:38:12;;;;;;;1.43;1.30;;;10.60;99.90;;;;;;5043155;28;20200;-86
2024/01/26 06:40:38;;;;;;;2.15;1.63;;;;;;;;;;5039315;28;20176;-86
2024/01/26 06:43:06;;;;;;;3.10;1.70;;;10.40;99.90;;;;;;5041459;28;20684;-86
2024/01/26 06:45:33;;;;;;;1.55;1.00;;;10.60;99.90;;;;;;5032447;28;20510;-85
2024/01/26 06:47:58;;;;;;;1.60;1.40;;;10.50;99.90;;;;;;5036704;28;20192;-86
2024/01/26 06:50:24;;;;;;;1.10;1.00;;;10.70;99.90;;;;;;5032998;28;20708;-86
2024/01/26 06:52:49;;;;;;;2.03;1.63;;;11.10;99.90;;;;;;5033524;28;20260;-86
2024/01/26 06:55:15;;;;;;;1.70;1.40;;;10.70;99.90;;;;;;5026328;28;20702;-86
2024/01/26 06:57:41;;;;;;;1.40;1.10;;;11.00;99.90;;;;;;5030195;28;20200;-86
2024/01/26 07:00:10;;;;;;;1.37;1.27;;;10.80;99.90;;;;;;5034017;28;20230;-93
2024/01/26 07:02:35;;;;;;;1.48;0.90;;;10.80;99.90;;;;;;5032889;28;21014;-89
2024/01/26 07:05:01;;;;;;;1.63;1.10;;;11.60;99.90;;;;;;5030152;28;20208;-86
2024/01/26 07:07:26;;;;;;;1.17;1.07;;;10.70;99.90;;;;;;5034248;28;20290;-86
2024/01/26 07:09:52;;;;;;;2.07;1.40;;;11.10;99.90;;;;;;5042430;28;20231;-86
2024/01/26 07:12:17;;;;;;;1.00;0.90;;;11.20;99.90;;;;;;5037394;28;20192;-87
2024/01/26 07:14:43;;;;;;;2.40;1.00;;;11.00;99.90;;;;;;5036116;28;20234;-86
2024/01/26 07:17:09;;;;;;;1.17;1.07;;;;;;;;;;5069610;28;20241;-85
2024/01/26 07:19:34;;;;;;;1.30;1.20;;;11.10;99.90;;;;;;5047524;28;20549;-88
2024/01/26 07:22:00;;;;;;;0.80;0.80;;;10.90;99.90;;;;;;5036705;28;20444;-87
2024/01/26 07:24:25;;;;;;;1.43;0.73;;;11.10;99.90;;;;;;5037286;28;20197;-86
2024/01/26 07:26:52;;;;;;;1.03;0.93;;;11.10;99.90;;;;;;5035019;28;20182;-86
2024/01/26 07:29:18;;;;;;;1.60;1.10;;;11.50;99.90;;;;;;5037633;28;20216;-87
2024/01/26 07:31:45;;;;;;;1.57;0.83;;;11.80;99.90;;;;;;5037785;28;20662;-90
2024/01/26 07:34:10;;;;;;;1.27;0.90;;;11.40;99.90;;;;;;5042108;28;20204;-85
2024/01/26 07:36:36;;;;;;;1.47;1.03;;;11.40;99.90;;;;;;5056176;28;20201;-85
2024/01/26 07:39:04;;;;;;;1.30;1.20;;;11.30;99.90;;;;;;5055187;28;20766;-87
2024/01/26 07:41:30;;;;;;;1.02;0.90;;;11.60;99.90;;;;;;5054741;28;20200;-87
2024/01/26 07:43:55;;;;;;;2.15;1.08;;;11.30;99.90;;;;;;5057943;28;20173;-87
2024/01/26 07:46:21;;;;;;;2.70;1.00;;;11.50;99.90;;;;;;5057442;28;20185;-89
2024/01/26 07:48:46;;;;;;;0.87;0.87;;;11.40;99.90;;;;;;5048411;28;20232;-87
2024/01/26 07:51:12;;;;;;;1.17;1.07;;;11.40;99.90;;;;;;5039911;28;20196;-86
2024/01/26 07:53:37;;;;;;;1.10;1.00;;;11.70;99.90;;;;;;5032391;28;20223;-86
2024/01/26 07:56:03;;;;;;;1.67;1.00;;;13.70;99.90;;;;;;5028222;28;20211;-88
2024/01/26 07:58:28;;;;;;;2.70;1.30;;;11.50;99.90;;;;;;5034010;28;20262;-87
2024/01/26 08:00:54;;;;;;;1.00;0.90;;;12.10;99.90;;;;;;5033791;28;20455;-88
2024/01/26 08:03:20;;;;;;;1.67;1.20;;;11.80;99.90;;;;;;5037542;28;20196;-88
2024/01/26 08:05:46;;;;;;;1.47;0.90;;;11.90;99.90;;;;;;5036465;28;20262;-87
2024/01/26 08:08:12;;;;;;;1.45;0.98;;;11.60;99.90;;;;;;5043116;28;20196;-88
2024/01/26 08:10:37;;;;;;;1.80;1.03;;;11.70;99.90;;;;;;5017896;28;20189;-85
2024/01/26 08:13:03;;;;;;;3.27;1.63;;;12.30;99.90;;;;;;5041391;28;20220;-87
2024/01/26 08:15:29;;;;;;;1.47;1.33;;;12.20;99.90;;;;;;5047819;28;20206;-86
2024/01/26 08:17:54;;;;;;;1.10;1.00;;;12.20;99.90;;;;;;5058593;28;20577;-87
2024/01/26 08:20:22;;;;;;;1.50;1.40;;;13.00;99.90;;;;;;5052497;28;20178;-89
2024/01/26 08:22:48;;;;;;;1.67;1.08;;;11.40;99.90;;;;;;5048148;28;20208;-88
2024/01/26 08:25:13;;;;;;;2.30;1.43;;;12.50;99.90;;;;;;5038395;28;20210;-87
2024/01/26 08:27:39;;;;;;;1.90;1.10;;;11.70;99.90;;;;;;5031218;28;20185;-88
2024/01/26 08:30:05;;;;;;;1.20;1.00;;;12.30;99.90;;;;;;5032602;28;20216;-87
2024/01/26 08:32:31;;;;;;;1.80;1.25;;;12.20;99.90;;;;;;5034053;28;20676;-89
2024/01/26 08:34:56;;;;;;;1.50;1.40;;;12.20;99.90;;;;;;5034201;28;20206;-87
2024/01/26 08:37:23;;;;;;;1.30;1.10;;;12.10;99.90;;;;;;5035386;28;20189;-88
2024/01/26 08:39:48;;;;;;;1.35;1.20;;;12.20;99.90;;;;;;5034944;28;20255;-90
2024/01/26 08:42:14;;;;;;;1.33;1.10;;;12.50;99.90;;;;;;5030777;28;20304;-89
2024/01/26 08:44:39;;;;;;;4.20;1.17;;;12.40;99.90;;;;;;5034103;28;20208;-88
2024/01/26 08:47:05;;;;;;;1.57;1.00;;;12.70;99.90;;;;;;5032007;28;20190;-88
2024/01/26 08:49:31;;;;;;;1.20;1.10;;;12.40;99.90;;;;;;5033399;28;20185;-88
2024/01/26 08:51:59;;;;;;;1.30;1.20;;;12.40;99.90;;;;;;5033231;28;20447;-88
2024/01/26 08:54:25;;;;;;;1.85;1.65;;;12.40;99.90;;;;;;5035354;28;20228;-89
2024/01/26 08:56:52;;;;;;;2.27;1.50;;;12.60;99.90;;;;;;5038818;28;20193;-87
2024/01/26 08:59:18;;;;;;;2.72;2.00;;;12.60;99.90;;;;;;5039283;28;20210;-87
2024/01/26 09:01:43;;;;;;;1.17;1.00;;;12.40;99.90;;;;;;5021317;28;20212;-89
2024/01/26 09:04:09;;;;;;;1.13;0.97;;;12.40;99.90;;;;;;5032843;28;20259;-89
2024/01/26 09:06:35;;;;;;;1.57;1.00;;;12.70;99.90;;;;;;5024939;28;20254;-88
2024/01/26 09:09:02;;;;;;;2.33;1.33;;;12.60;99.90;;;;;;5043625;28;20455;-89
2024/01/26 09:11:28;;;;;;;2.90;1.67;;;12.70;99.90;;;;;;5030279;28;20182;-89
2024/01/26 09:13:53;;;;;;;1.43;1.33;;;12.90;99.90;;;;;;5037424;28;20638;-87
2024/01/26 09:16:19;;;;;;;1.90;1.40;;;12.60;99.90;;;;;;5036006;28;20316;-88
2024/01/26 09:18:45;;;;;;;2.10;1.08;;;12.60;99.90;;;;;;5055854;28;20217;-87
2024/01/26 09:21:11;;;;;;;1.20;1.10;;;12.60;99.90;;;;;;5037271;28;20181;-87
2024/01/26 09:23:37;;;;;;;1.60;1.20;;;12.90;99.90;;;;;;5036778;28;20239;-79
2024/01/26 09:26:02;;;;;;;1.63;1.13;;;12.90;99.90;;;;;;5048606;28;20197;-80
2024/01/26 09:28:28;;;;;;;1.83;1.17;;;12.70;99.90;;;;;;5045379;28;20196;-81
2024/01/26 09:30:54;;;;;;;1.37;1.10;;;13.10;99.90;;;;;;5036643;28;20181;-91
2024/01/26 09:33:20;;;;;;;1.10;1.00;;;12.90;99.90;;;;;;5042942;28;20192;-92
2024/01/26 09:35:47;;;;;;;1.10;0.98;;;12.80;99.90;;;;;;5159104;22;20253;-90
2024/01/26 09:38:12;;;;;;;1.50;1.00;;;13.10;99.90;;;;;;5020411;28;20206;-93
2024/01/26 09:40:39;;;;;;;4.10;1.53;;;13.40;99.90;;;;;;5037374;28;20178;-87
2024/01/26 09:43:11;;;;;;;1.25;1.15;;;13.50;99.90;;;;;;5026419;28;20182;-89
2024/01/26 09:45:37;;;;;;;3.15;1.17;;;13.00;99.90;;;;;;5012662;28;20232;-89
2024/01/26 09:48:05;;;;;;;1.42;1.10;;;12.50;99.90;;;;;;5032605;28;20246;-88
2024/01/26 09:50:31;;;;;;;1.73;1.10;;;13.00;99.90;;;;;;5021002;28;20182;-88
2024/01/26 09:52:58;;;;;;;3.50;1.20;;;13.10;99.90;;;;;;5018592;28;20186;-86
2024/01/26 09:55:25;;;;;;;1.67;1.42;;;12.90;99.90;;;;;;5018952;28;20679;-85
2024/01/26 09:57:51;;;;;;;1.85;1.50;;;12.90;99.90;;;;;;5018462;28;20202;-86
2024/01/26 10:00:17;;;;;;;1.67;1.58;;;13.40;99.90;;;;;;5018876;28;20204;-86
2024/01/26 10:02:43;;;;;;;1.40;1.30;;;12.70;99.90;;;;;;5019039;28;20189;-86
2024/01/26 10:05:15;;;;;;;1.57;1.33;;;13.00;99.90;;;;;;5014733;28;20758;-86
2024/01/26 10:07:40;;;;;;;6.38;4.45;;;13.50;99.90;;;;;;5049549;28;20444;-86
2024/01/26 10:10:07;;;;;;;1.30;1.20;;;13.00;99.90;;;;;;5017252;28;20649;-85
2024/01/26 10:12:35;;;;;;;1.60;1.50;;;13.00;99.90;;;;;;5013788;28;20190;-84
2024/01/26 10:15:09;;;;;;;2.40;1.30;;;13.00;99.90;;;;;;5026047;28;20232;-84
2024/01/26 10:17:34;;;;;;;3.50;2.20;;;13.10;99.90;;;;;;5013914;28;20209;-86
2024/01/26 10:20:07;;;;;;;1.83;1.50;;;13.30;99.90;;;;;;5019075;28;21009;-87
2024/01/26 10:22:36;;;;;;;3.47;1.35;;;13.20;99.90;;;;;;5035107;28;20436;-87
2024/01/26 10:25:03;;;;;;;1.30;1.20;;;13.40;99.90;;;;;;5018860;28;20221;-86
2024/01/26 10:27:30;;;;;;;2.60;1.38;;;13.00;99.90;;;;;;5024660;28;20175;-86
2024/01/26 10:29:55;;;;;;;1.52;1.38;;;13.20;99.90;;;;;;5056349;28;20174;-86
2024/01/26 10:32:26;;;;;;;1.53;1.43;;;13.30;99.90;;;;;;5008611;28;20939;-84
2024/01/26 10:34:58;;;;;;;2.15;1.92;;;13.30;99.90;;;;;;5049854;28;20222;-85
2024/01/26 10:37:28;;;;;;;3.45;1.40;;;13.40;99.90;;;;;;5057609;28;20201;-85
2024/01/26 10:39:55;;;;;;;2.30;1.40;;;13.70;99.90;;;;;;5015790;28;20187;-85
2024/01/26 10:42:21;;;;;;;1.90;1.50;;;14.00;99.90;;;;;;5022541;28;20178;-84
2024/01/26 10:44:51;;;;;;;1.77;1.40;;;13.10;99.90;;;;;;5023885;28;20252;-84
2024/01/26 10:47:17;;;;;;;1.35;1.25;;;13.30;99.90;;;;;;5041717;28;20182;-84
2024/01/26 10:49:48;;;;;;;1.83;1.20;;;13.20;99.90;;;;;;5031912;28;20587;-84
2024/01/26 10:52:21;;;;;;;1.90;1.67;;;13.70;99.90;;;;;;5037020;28;20210;-84
2024/01/26 10:54:49;;;;;;;2.25;1.92;;;13.40;99.90;;;;;;5034827;28;20761;-85
2024/01/26 10:57:15;;;;;;;1.42;1.33;;;13.30;99.90;;;;;;5055907;28;20187;-83
2024/01/26 10:59:43;;;;;;;2.00;1.60;;;13.10;99.90;;;;;;5037665;28;20212;-84
2024/01/26 11:02:21;;;;;;;1.70;1.60;;;13.30;99.90;;;;;;5032059;28;20182;-84
2024/01/26 11:04:46;;;;;;;1.40;1.30;;;13.60;99.90;;;;;;5025223;28;20220;-83
2024/01/26 11:07:13;;;;;;;2.17;1.70;;;13.60;99.90;;;;;;5032142;28;20209;-84
2024/01/26 11:09:38;;;;;;;1.30;1.20;;;13.90;99.90;;;;;;5031380;28;20448;-84
2024/01/26 11:12:25;;;;;;;1.30;1.20;;;14.90;99.90;;;;;;5031687;28;20262;-84
2024/01/26 11:15:08;;;;;;;1.77;1.30;;;13.90;99.90;;;;;;5020550;28;20291;-85
2024/01/26 11:17:43;;;;;;;1.92;1.58;;;13.50;99.90;;;;;;5027184;28;20873;-85
2024/01/26 11:20:18;;;;;;;1.45;1.25;;;13.60;99.90;;;;;;5020731;28;20237;-83
2024/01/26 11:22:44;;;;;;;1.80;1.17;;;13.70;99.90;;;;;;5049798;28;20218;-84
2024/01/26 11:25:20;;;;;;;2.13;1.45;;;13.40;99.90;;;;;;5027518;28;20245;-85
2024/01/26 11:27:46;;;;;;;2.65;1.20;;;14.20;99.90;;;;;;5025939;28;20178;-85
2024/01/26 11:30:24;;;;;;;3.40;1.33;;;13.70;99.90;;;;;;5024789;28;20186;-84
2024/01/26 11:32:50;;;;;;;1.75;1.20;;;13.40;99.90;;;;;;5037096;28;20169;-84
2024/01/26 11:35:16;;;;;;;1.70;1.60;;;13.70;99.90;;;;;;5032032;28;20249;-84
2024/01/26 11:37:42;;;;;;;2.80;1.55;;;15.00;99.90;;;;;;5030301;28;20206;-85
2024/01/26 11:40:09;;;;;;;1.33;1.05;;;14.40;99.90;;;;;;5043504;28;20179;-85
2024/01/26 11:42:36;;;;;;;1.50;1.08;;;13.50;99.90;;;;;;5022494;28;20182;-84
2024/01/26 11:45:08;;;;;;;2.60;1.60;;;13.70;99.90;;;;;;5013606;28;20209;-85
2024/01/26 11:47:43;;;;;;;1.27;1.10;;;14.30;99.90;;;;;;5027017;28;20206;-86
2024/01/26 11:50:10;;;;;;;1.67;1.42;;;13.60;99.90;;;;;;5045629;28;20224;-85
2024/01/26 11:52:36;;;;;;;1.50;1.20;;;13.50;99.90;;;;;;5028025;28;20261;-84
2024/01/26 11:55:02;;;;;;;2.10;1.38;;;13.60;99.90;;;;;;5034770;28;20202;-84
2024/01/26 11:57:30;;;;;;;1.80;1.70;;;13.60;99.90;;;;;;5024236;28;20789;-84
2024/01/26 12:00:00;;;;;;;2.08;1.88;;;14.00;99.90;;;;;;5023292;28;20247;-85
2024/01/26 12:02:32;;;;;;;1.55;1.27;;;13.60;99.90;;;;;;5023857;28;20183;-84
2024/01/26 12:04:57;;;;;;;1.02;1.00;;;13.60;99.90;;;;;;5023015;28;20206;-85
2024/01/26 12:07:23;;;;;;;1.30;1.20;;;11.80;99.90;;;;;;5040777;28;20179;-84
2024/01/26 12:09:50;;;;;;;3.00;1.17;;;14.50;99.90;;;;;;5023824;28;20185;-88
2024/01/26 12:12:17;;;;;;;1.83;1.30;;;13.30;99.90;;;;;;5023675;28;20179;-88
2024/01/26 12:14:44;;;;;;;1.33;1.17;;;13.80;99.90;;;;;;5025663;28;20220;-88
2024/01/26 12:17:10;;;;;;;1.55;1.35;;;13.60;99.90;;;;;;5025091;28;20687;-88
2024/01/26 12:19:37;;;;;;;2.00;1.20;;;13.70;99.90;;;;;;5009821;28;20202;-88
2024/01/26 12:22:09;;;;;;;2.70;1.15;;;13.60;99.90;;;;;;5021684;28;20217;-87
2024/01/26 12:24:35;;;;;;;2.53;1.65;;;14.70;99.90;;;;;;5055680;28;20199;-86
2024/01/26 12:27:05;;;;;;;2.58;1.75;;;13.90;99.90;;;;;;5004057;28;20647;-85
2024/01/26 12:29:34;;;;;;;4.75;1.48;;;13.60;99.90;;;;;;5008238;28;20191;-85
2024/01/26 12:32:10;;;;;;;1.40;1.10;;;13.40;99.90;;;;;;5025988;28;20253;-87
2024/01/26 12:34:41;;;;;;;3.15;1.40;;;13.90;99.90;;;;;;5028358;28;20219;-86
2024/01/26 12:37:10;;;;;;;2.20;1.38;;;14.20;99.90;;;;;;5041488;28;20208;-87
2024/01/26 12:39:36;;;;;;;1.83;1.10;;;14.00;99.90;;;;;;5026799;28;21194;-88
2024/01/26 12:42:02;;;;;;;1.33;0.80;;;13.80;99.90;;;;;;5029323;28;20269;-87
2024/01/26 12:44:31;;;;;;;1.92;0.90;;;13.80;99.90;;;;;;5042762;28;20202;-88